createdAt,value
2019-04-12T00:00:21.382Z,0.89
2019-04-12T00:04:53.126Z,0.78
2019-04-12T00:05:53.108Z,0.81
2019-04-12T00:08:10.156Z,0.59
2019-04-12T00:08:59.999Z,0.64
2019-04-12T00:09:59.983Z,0.58
2019-04-12T00:11:00.006Z,0.51
2019-04-12T00:11:59.939Z,0.45
2019-04-12T00:12:59.918Z,0.47
2019-04-12T00:13:59.901Z,0.45
2019-04-12T00:14:59.884Z,0.33
2019-04-12T00:15:59.859Z,0.36
2019-04-12T00:16:59.844Z,0.34
2019-04-12T00:17:59.818Z,0.29
2019-04-12T00:18:59.799Z,0.19
2019-04-12T00:19:59.779Z,0.23
2019-04-12T00:20:59.760Z,0.23
2019-04-12T00:21:59.731Z,0.20
2019-04-12T00:22:59.716Z,0.18
2019-04-12T00:23:59.697Z,0.12
2019-04-12T00:24:59.676Z,0.05
2019-04-12T00:25:59.658Z,0.11
2019-04-12T00:26:59.638Z,0.02
2019-04-12T00:27:59.618Z,0.05
2019-04-12T00:28:59.605Z,-0.06
2019-04-12T00:29:59.573Z,-0.10
2019-04-12T00:30:59.558Z,-0.03
2019-04-12T00:31:59.536Z,-0.12
2019-04-12T00:32:59.513Z,-0.13
2019-04-12T00:33:59.498Z,-0.10
2019-04-12T00:34:59.479Z,-0.10
2019-04-12T00:35:59.456Z,-0.23
2019-04-12T00:36:59.452Z,-0.18
2019-04-12T00:37:59.417Z,-0.26
2019-04-12T00:38:59.403Z,-0.24
2019-04-12T00:40:00.628Z,-0.27
2019-04-12T00:41:02.130Z,-0.24
2019-04-12T00:42:02.359Z,-0.28
2019-04-12T00:43:02.919Z,-0.28
2019-04-12T00:43:59.294Z,-0.31
2019-04-12T00:44:59.275Z,-0.23
2019-04-12T00:45:59.250Z,-0.35
2019-04-12T00:46:59.233Z,-0.24
2019-04-12T00:47:59.213Z,-0.27
2019-04-12T00:48:59.194Z,-0.38
2019-04-12T00:49:59.171Z,-0.33
2019-04-12T00:50:59.198Z,-0.33
2019-04-12T00:51:59.129Z,-0.36
2019-04-12T00:52:59.113Z,-0.33
2019-04-12T00:53:59.092Z,-0.44
2019-04-12T00:54:59.069Z,-0.45
2019-04-12T00:55:59.049Z,-0.41
2019-04-12T00:56:59.032Z,-0.44
2019-04-12T00:57:59.007Z,-0.53
2019-04-12T00:58:58.992Z,-0.44
2019-04-12T00:59:58.969Z,-0.53
2019-04-12T01:00:58.942Z,-0.46
2019-04-12T01:01:58.928Z,-0.51
2019-04-12T01:02:58.902Z,-0.46
2019-04-12T01:03:58.881Z,-0.57
2019-04-12T01:04:58.870Z,-0.44
2019-04-12T01:05:58.841Z,-0.62
2019-04-12T01:06:58.828Z,-0.57
2019-04-12T01:07:58.799Z,-0.57
2019-04-12T01:08:58.805Z,-0.54
2019-04-12T01:09:58.766Z,-0.56
2019-04-12T01:10:58.741Z,-0.62
2019-04-12T01:11:58.720Z,-0.56
2019-04-12T01:12:58.708Z,-0.57
2019-04-12T01:13:58.680Z,-0.59
2019-04-12T01:14:59.118Z,-0.66
2019-04-12T01:16:00.141Z,-0.64
2019-04-12T01:17:00.598Z,-0.66
2019-04-12T01:18:01.897Z,-0.59
2019-04-12T01:19:02.117Z,-0.59
2019-04-12T01:19:58.554Z,-0.63
2019-04-12T01:20:58.536Z,-0.64
2019-04-12T01:21:58.513Z,-0.67
2019-04-12T01:22:58.490Z,-0.67
2019-04-12T01:23:58.475Z,-0.69
2019-04-12T01:24:58.453Z,-0.67
2019-04-12T01:25:58.433Z,-0.70
2019-04-12T01:26:58.411Z,-0.75
2019-04-12T01:27:58.392Z,-0.72
2019-04-12T01:28:58.369Z,-0.67
2019-04-12T01:29:58.351Z,-0.62
2019-04-12T01:30:58.331Z,-0.70
2019-04-12T01:31:58.312Z,-0.67
2019-04-12T01:32:58.291Z,-0.75
2019-04-12T01:33:58.269Z,-0.69
2019-04-12T01:34:58.252Z,-0.84
2019-04-12T01:35:58.225Z,-0.81
2019-04-12T01:36:58.213Z,-0.82
2019-04-12T01:37:58.187Z,-0.77
2019-04-12T01:38:58.163Z,-0.84
2019-04-12T01:39:58.144Z,-0.80
2019-04-12T01:40:58.165Z,-0.77
2019-04-12T01:41:58.102Z,-0.80
2019-04-12T01:42:58.083Z,-0.82
2019-04-12T01:43:58.056Z,-0.81
2019-04-12T01:44:58.041Z,-0.87
2019-04-12T01:45:58.016Z,-0.84
2019-04-12T01:46:58.004Z,-0.82
2019-04-12T01:47:57.983Z,-0.70
2019-04-12T01:48:57.958Z,-0.84
2019-04-12T01:49:57.945Z,-0.85
2019-04-12T01:50:57.920Z,-0.94
2019-04-12T01:51:57.900Z,-0.85
2019-04-12T01:52:57.875Z,-0.87
2019-04-12T01:53:57.854Z,-0.89
2019-04-12T01:55:08.449Z,-0.94
2019-04-12T01:55:57.816Z,-0.84
2019-04-12T01:56:57.795Z,-0.84
2019-04-12T01:57:57.773Z,-0.82
2019-04-12T01:58:57.751Z,-0.97
2019-04-12T01:59:57.739Z,-0.91
2019-04-12T02:00:57.704Z,-0.97
2019-04-12T02:01:57.691Z,-0.94
2019-04-12T02:02:57.670Z,-1.04
2019-04-12T02:03:57.651Z,-1.00
2019-04-12T02:04:57.630Z,-0.93
2019-04-12T02:05:57.607Z,-1.11
2019-04-12T02:06:57.588Z,-1.06
2019-04-12T02:07:57.564Z,-1.07
2019-04-12T02:08:57.546Z,-1.00
2019-04-12T02:09:57.546Z,-1.04
2019-04-12T02:10:57.504Z,-1.17
2019-04-12T02:11:57.483Z,-1.06
2019-04-12T02:12:57.464Z,-1.06
2019-04-12T02:13:57.460Z,-1.00
2019-04-12T02:14:57.422Z,-1.04
2019-04-12T02:15:57.407Z,-1.11
2019-04-12T02:16:57.380Z,-1.09
2019-04-12T02:17:57.356Z,-1.14
2019-04-12T02:18:57.336Z,-1.14
2019-04-12T02:19:57.314Z,-1.11
2019-04-12T02:20:57.298Z,-1.12
2019-04-12T02:21:57.273Z,-1.15
2019-04-12T02:22:57.249Z,-1.15
2019-04-12T02:23:57.229Z,-1.12
2019-04-12T02:24:57.208Z,-1.17
2019-04-12T02:25:57.198Z,-1.21
2019-04-12T02:26:57.170Z,-1.17
2019-04-12T02:27:57.149Z,-1.24
2019-04-12T02:28:57.126Z,-1.25
2019-04-12T02:29:57.108Z,-1.30
2019-04-12T02:30:57.090Z,-1.22
2019-04-12T02:31:57.073Z,-1.30
2019-04-12T02:32:57.060Z,-1.24
2019-04-12T02:33:57.028Z,-1.25
2019-04-12T02:34:57.007Z,-1.27
2019-04-12T02:35:56.982Z,-1.35
2019-04-12T02:36:56.965Z,-1.27
2019-04-12T02:37:56.944Z,-1.32
2019-04-12T02:38:56.916Z,-1.33
2019-04-12T02:39:56.912Z,-1.30
2019-04-12T02:40:56.881Z,-1.27
2019-04-12T02:41:56.881Z,-1.38
2019-04-12T02:42:56.831Z,-1.22
2019-04-12T02:43:56.816Z,-1.40
2019-04-12T02:44:56.800Z,-1.30
2019-04-12T02:45:56.804Z,-1.35
2019-04-12T02:46:56.755Z,-1.30
2019-04-12T02:47:56.733Z,-1.39
2019-04-12T02:48:56.712Z,-1.40
2019-04-12T02:49:56.700Z,-1.46
2019-04-12T02:50:56.668Z,-1.42
2019-04-12T02:51:56.650Z,-1.51
2019-04-12T02:52:56.628Z,-1.43
2019-04-12T02:53:56.626Z,-1.43
2019-04-12T02:54:56.580Z,-1.51
2019-04-12T02:55:56.564Z,-1.46
2019-04-12T02:56:56.540Z,-1.48
2019-04-12T02:57:56.530Z,-1.45
2019-04-12T02:58:56.501Z,-1.53
2019-04-12T02:59:56.482Z,-1.50
2019-04-12T03:00:56.462Z,-1.63
2019-04-12T03:01:56.439Z,-1.63
2019-04-12T03:02:56.413Z,-1.57
2019-04-12T03:03:56.391Z,-1.56
2019-04-12T03:04:56.382Z,-1.68
2019-04-12T03:05:56.359Z,-1.53
2019-04-12T03:06:56.328Z,-1.63
2019-04-12T03:07:56.311Z,-1.57
2019-04-12T03:08:56.286Z,-1.58
2019-04-12T03:09:56.275Z,-1.68
2019-04-12T03:10:56.243Z,-1.69
2019-04-12T03:11:56.233Z,-1.66
2019-04-12T03:12:56.207Z,-1.64
2019-04-12T03:13:56.198Z,-1.61
2019-04-12T03:15:06.368Z,-1.64
2019-04-12T03:17:01.585Z,-1.63
2019-04-12T03:18:01.551Z,-1.69
2019-04-12T03:19:01.529Z,-1.69
2019-04-12T03:20:01.516Z,-1.74
2019-04-12T03:21:01.483Z,-1.71
2019-04-12T03:22:01.466Z,-1.72
2019-04-12T03:23:01.440Z,-1.69
2019-04-12T03:24:01.420Z,-1.89
2019-04-12T03:25:01.406Z,-1.68
2019-04-12T03:26:01.397Z,-1.81
2019-04-12T03:27:01.385Z,-1.82
2019-04-12T03:28:01.334Z,-1.71
2019-04-12T03:29:01.317Z,-1.84
2019-04-12T03:30:01.300Z,-1.72
2019-04-12T03:31:01.272Z,-1.71
2019-04-12T03:32:01.254Z,-1.79
2019-04-12T03:33:01.233Z,-1.76
2019-04-12T03:34:01.208Z,-1.82
2019-04-12T03:35:01.187Z,-1.87
2019-04-12T03:36:01.170Z,-1.84
2019-04-12T03:37:01.141Z,-1.90
2019-04-12T03:38:01.136Z,-1.82
2019-04-12T03:39:01.138Z,-1.92
2019-04-12T03:40:01.083Z,-1.93
2019-04-12T03:41:01.076Z,-1.89
2019-04-12T03:42:01.036Z,-1.97
2019-04-12T03:43:01.014Z,-1.87
2019-04-12T03:44:00.997Z,-1.84
2019-04-12T03:45:00.972Z,-1.92
2019-04-12T03:46:00.953Z,-1.90
2019-04-12T03:47:00.934Z,-1.90
2019-04-12T03:48:00.911Z,-1.92
2019-04-12T03:49:00.891Z,-1.90
2019-04-12T03:50:00.879Z,-2.00
2019-04-12T03:51:00.843Z,-1.90
2019-04-12T03:52:00.822Z,-1.99
2019-04-12T03:53:00.803Z,-2.04
2019-04-12T03:54:00.776Z,-1.94
2019-04-12T03:55:00.758Z,-2.02
2019-04-12T03:56:08.256Z,-1.97
2019-04-12T03:57:00.724Z,-2.07
2019-04-12T03:58:00.692Z,-2.07
2019-04-12T03:59:00.672Z,-2.04
2019-04-12T04:00:00.651Z,-2.00
2019-04-12T04:01:00.629Z,-2.08
2019-04-12T04:02:00.612Z,-2.04
2019-04-12T04:03:00.587Z,-2.05
2019-04-12T04:04:00.572Z,-2.07
2019-04-12T04:05:00.577Z,-2.13
2019-04-12T04:06:00.528Z,-2.08
2019-04-12T04:07:00.502Z,-2.14
2019-04-12T04:08:00.484Z,-2.08
2019-04-12T04:09:00.525Z,-2.13
2019-04-12T04:10:00.445Z,-2.18
2019-04-12T04:11:00.417Z,-2.13
2019-04-12T04:12:00.397Z,-2.23
2019-04-12T04:13:00.373Z,-2.25
2019-04-12T04:14:00.354Z,-2.28
2019-04-12T04:15:00.331Z,-2.26
2019-04-12T04:16:00.312Z,-2.23
2019-04-12T04:17:00.294Z,-2.17
2019-04-12T04:18:00.264Z,-2.17
2019-04-12T04:19:00.245Z,-2.13
2019-04-12T04:20:00.221Z,-2.15
2019-04-12T04:21:00.202Z,-2.18
2019-04-12T04:22:00.184Z,-2.17
2019-04-12T04:23:00.157Z,-2.25
2019-04-12T04:24:00.139Z,-2.25
2019-04-12T04:25:00.117Z,-2.20
2019-04-12T04:26:00.093Z,-2.23
2019-04-12T04:27:00.071Z,-2.32
2019-04-12T04:28:00.053Z,-2.29
2019-04-12T04:29:00.032Z,-2.29
2019-04-12T04:30:00.004Z,-2.29
2019-04-12T04:30:59.988Z,-2.28
2019-04-12T04:31:59.965Z,-2.33
2019-04-12T04:32:59.953Z,-2.39
2019-04-12T04:33:59.919Z,-2.26
2019-04-12T04:34:59.904Z,-2.36
2019-04-12T04:35:59.877Z,-2.33
2019-04-12T04:36:59.860Z,-2.36
2019-04-12T04:37:59.838Z,-2.37
2019-04-12T04:38:59.812Z,-2.36
2019-04-12T04:39:59.792Z,-2.36
2019-04-12T04:40:59.770Z,-2.33
2019-04-12T04:41:59.749Z,-2.39
2019-04-12T04:42:59.729Z,-2.36
2019-04-12T04:43:59.717Z,-2.33
2019-04-12T04:44:59.691Z,-2.47
2019-04-12T04:45:59.667Z,-2.42
2019-04-12T04:46:59.635Z,-2.37
2019-04-12T04:47:59.617Z,-2.34
2019-04-12T04:48:59.597Z,-2.33
2019-04-12T04:49:59.577Z,-2.44
2019-04-12T04:50:59.563Z,-2.39
2019-04-12T04:51:59.535Z,-2.36
2019-04-12T04:52:59.510Z,-2.32
2019-04-12T04:53:59.488Z,-2.45
2019-04-12T04:54:59.467Z,-2.34
2019-04-12T04:55:59.447Z,-2.40
2019-04-12T04:56:59.424Z,-2.36
2019-04-12T04:57:59.410Z,-2.47
2019-04-12T04:58:59.382Z,-2.44
2019-04-12T04:59:59.360Z,-2.39
2019-04-12T05:00:59.338Z,-2.42
2019-04-12T05:01:59.328Z,-2.33
2019-04-12T05:02:59.293Z,-2.36
2019-04-12T05:03:59.274Z,-2.39
2019-04-12T05:04:59.252Z,-2.36
2019-04-12T05:05:59.231Z,-2.34
2019-04-12T05:06:59.215Z,-2.42
2019-04-12T05:07:59.188Z,-2.39
2019-04-12T05:08:59.167Z,-2.36
2019-04-12T05:09:59.146Z,-2.33
2019-04-12T05:10:59.127Z,-2.37
2019-04-12T05:11:59.100Z,-2.36
2019-04-12T05:12:59.080Z,-2.34
2019-04-12T05:13:59.058Z,-2.39
2019-04-12T05:14:59.037Z,-2.39
2019-04-12T05:15:59.016Z,-2.28
2019-04-12T05:16:58.996Z,-2.28
2019-04-12T05:17:58.971Z,-2.23
2019-04-12T05:18:58.950Z,-2.17
2019-04-12T05:19:58.927Z,-2.22
2019-04-12T05:20:58.905Z,-2.13
2019-04-12T05:21:58.895Z,-2.25
2019-04-12T05:22:58.864Z,-2.28
2019-04-12T05:23:58.856Z,-2.15
2019-04-12T05:24:58.820Z,-2.22
2019-04-12T05:25:58.797Z,-2.17
2019-04-12T05:26:58.781Z,-2.14
2019-04-12T05:27:58.757Z,-2.18
2019-04-12T05:28:58.733Z,-2.10
2019-04-12T05:29:58.716Z,-2.13
2019-04-12T05:30:58.691Z,-2.08
2019-04-12T05:31:58.670Z,-2.10
2019-04-12T05:32:58.652Z,-2.10
2019-04-12T05:33:58.629Z,-2.10
2019-04-12T05:34:58.607Z,-1.94
2019-04-12T05:35:58.585Z,-1.92
2019-04-12T05:37:09.675Z,-1.93
2019-04-12T05:37:58.545Z,-1.87
2019-04-12T05:38:58.524Z,-1.92
2019-04-12T05:39:58.499Z,-1.89
2019-04-12T05:40:58.478Z,-1.82
2019-04-12T05:41:58.456Z,-1.78
2019-04-12T05:42:58.435Z,-1.84
2019-04-12T05:43:58.414Z,-1.71
2019-04-12T05:44:58.395Z,-1.58
2019-04-12T05:45:58.376Z,-1.57
2019-04-12T05:46:58.350Z,-1.57
2019-04-12T05:47:58.332Z,-1.58
2019-04-12T05:48:58.312Z,-1.40
2019-04-12T05:49:58.287Z,-1.46
2019-04-12T05:50:58.265Z,-1.39
2019-04-12T05:51:58.247Z,-1.38
2019-04-12T05:52:58.630Z,-1.32
2019-04-12T05:53:59.342Z,-1.21
2019-04-12T05:54:58.183Z,-1.11
2019-04-12T05:55:58.162Z,-0.99
2019-04-12T05:56:58.142Z,-0.89
2019-04-12T05:57:58.121Z,-0.84
2019-04-12T05:58:58.098Z,-0.81
2019-04-12T05:59:58.082Z,-0.70
2019-04-12T06:00:58.058Z,-0.69
2019-04-12T06:01:58.032Z,-0.60
2019-04-12T06:02:58.568Z,-0.51
2019-04-12T06:03:58.953Z,-0.38
2019-04-12T06:04:59.309Z,-0.38
2019-04-12T06:06:01.417Z,-0.27
2019-04-12T06:06:58.605Z,-0.21
2019-04-12T06:07:57.919Z,-0.09
2019-04-12T06:08:57.897Z,0.00
2019-04-12T06:09:57.878Z,0.06
2019-04-12T06:10:57.855Z,0.12
2019-04-12T06:11:57.841Z,0.09
2019-04-12T06:12:57.816Z,0.24
2019-04-12T06:13:57.798Z,0.34
2019-04-12T06:14:57.776Z,0.45
2019-04-12T06:15:57.756Z,0.49
2019-04-12T06:17:01.467Z,0.52
2019-04-12T06:17:57.767Z,0.67
2019-04-12T06:18:57.700Z,0.74
2019-04-12T06:19:57.675Z,0.85
2019-04-12T06:20:57.659Z,0.86
2019-04-12T06:21:57.638Z,0.85
2019-04-12T06:22:57.620Z,0.95
2019-04-12T06:23:57.601Z,1.07
2019-04-12T06:24:57.579Z,1.18
2019-04-12T06:25:57.563Z,1.24
2019-04-12T06:27:09.126Z,1.27
2019-04-12T06:27:57.527Z,1.42
2019-04-12T06:28:57.504Z,1.42
2019-04-12T06:29:57.485Z,1.46
2019-04-12T06:30:57.466Z,1.64
2019-04-12T06:31:57.445Z,1.71
2019-04-12T06:32:57.426Z,1.75
2019-04-12T06:33:57.409Z,1.85
2019-04-12T06:34:57.388Z,1.92
2019-04-12T06:35:57.370Z,2.03
2019-04-12T06:36:57.351Z,2.14
2019-04-12T06:37:57.332Z,2.18
2019-04-12T06:38:57.333Z,2.23
2019-04-12T06:39:57.295Z,2.26
2019-04-12T06:40:57.271Z,2.47
2019-04-12T06:41:57.256Z,2.57
2019-04-12T06:42:57.238Z,2.51
2019-04-12T06:43:57.223Z,2.58
2019-04-12T06:44:57.199Z,2.57
2019-04-12T06:45:57.182Z,2.68
2019-04-12T06:46:57.164Z,2.73
2019-04-12T06:47:57.144Z,2.76
2019-04-12T06:48:57.125Z,2.85
2019-04-12T06:49:57.109Z,2.85
2019-04-12T06:50:57.090Z,2.98
2019-04-12T06:51:57.069Z,3.06
2019-04-12T06:52:57.048Z,3.09
2019-04-12T06:53:57.032Z,3.13
2019-04-12T06:54:57.013Z,3.27
2019-04-12T06:55:56.997Z,3.29
2019-04-12T06:56:56.975Z,3.36
2019-04-12T06:57:56.958Z,3.40
2019-04-12T06:58:56.941Z,3.56
2019-04-12T06:59:56.938Z,3.68
2019-04-12T07:00:56.935Z,3.74
2019-04-12T07:01:56.885Z,3.86
2019-04-12T07:02:56.870Z,3.81
2019-04-12T07:03:57.590Z,3.96
2019-04-12T07:04:56.829Z,4.12
2019-04-12T07:05:56.817Z,4.07
2019-04-12T07:06:56.796Z,4.18
2019-04-12T07:07:56.860Z,4.34
2019-04-12T07:08:57.940Z,4.38
2019-04-12T07:09:56.739Z,4.49
2019-04-12T07:10:56.725Z,4.56
2019-04-12T07:11:56.708Z,4.67
2019-04-12T07:12:56.701Z,4.71
2019-04-12T07:13:56.670Z,4.83
2019-04-12T07:14:56.658Z,4.87
2019-04-12T07:15:56.633Z,4.89
2019-04-12T07:16:56.622Z,4.98
2019-04-12T07:17:56.606Z,5.10
2019-04-12T07:18:56.584Z,5.10
2019-04-12T07:19:56.571Z,5.18
2019-04-12T07:20:56.550Z,5.26
2019-04-12T07:21:56.531Z,5.44
2019-04-12T07:22:59.083Z,5.44
2019-04-12T07:23:56.498Z,5.49
2019-04-12T07:24:56.473Z,5.58
2019-04-12T07:25:56.467Z,5.69
2019-04-12T07:26:56.447Z,5.80
2019-04-12T07:27:56.432Z,5.87
2019-04-12T07:28:56.414Z,6.02
2019-04-12T07:29:56.397Z,6.05
2019-04-12T07:30:57.264Z,6.16
2019-04-12T07:31:56.354Z,6.20
2019-04-12T07:32:56.351Z,6.38
2019-04-12T07:33:56.329Z,6.43
2019-04-12T07:34:56.337Z,6.50
2019-04-12T07:35:56.299Z,6.59
2019-04-12T07:36:56.283Z,6.64
2019-04-12T07:37:56.264Z,6.67
2019-04-12T07:38:56.249Z,6.78
2019-04-12T07:39:56.230Z,6.83
2019-04-12T07:40:56.215Z,6.89
2019-04-12T07:41:56.201Z,6.86
2019-04-12T07:42:56.183Z,6.97
2019-04-12T07:43:56.168Z,7.03
2019-04-12T07:44:56.165Z,7.23
2019-04-12T07:45:56.138Z,7.29
2019-04-12T07:46:56.124Z,7.46
2019-04-12T07:47:56.106Z,7.51
2019-04-12T07:48:56.091Z,7.55
2019-04-12T07:49:56.075Z,7.81
2019-04-12T07:50:58.121Z,7.85
2019-04-12T07:51:56.044Z,7.95
2019-04-12T07:52:56.026Z,7.98
2019-04-12T07:53:56.010Z,8.05
2019-04-12T07:54:55.997Z,8.18
2019-04-12T07:55:55.980Z,8.20
2019-04-12T07:56:55.967Z,8.32
2019-04-12T07:57:55.949Z,8.49
2019-04-12T07:58:55.933Z,8.56
2019-04-12T07:59:55.919Z,8.64
2019-04-12T08:00:56.406Z,8.81
2019-04-12T08:01:57.698Z,8.87
2019-04-12T08:02:55.874Z,9.05
2019-04-12T08:03:55.860Z,9.22
2019-04-12T08:04:55.852Z,9.31
2019-04-12T08:05:55.875Z,9.42
2019-04-12T08:06:55.817Z,9.55
2019-04-12T08:07:55.802Z,9.55
2019-04-12T08:08:55.786Z,9.67
2019-04-12T08:09:55.774Z,9.72
2019-04-12T08:10:55.758Z,9.76
2019-04-12T08:11:55.752Z,9.81
2019-04-12T08:12:55.729Z,9.84
2019-04-12T08:13:55.718Z,9.92
2019-04-12T08:14:55.705Z,9.99
2019-04-12T08:15:55.693Z,10.03
2019-04-12T08:16:55.671Z,10.06
2019-04-12T08:17:55.661Z,10.07
2019-04-12T08:18:55.646Z,10.30
2019-04-12T08:19:58.337Z,10.28
2019-04-12T08:20:55.615Z,10.45
2019-04-12T08:21:55.603Z,10.61
2019-04-12T08:22:55.588Z,10.76
2019-04-12T08:23:55.573Z,10.87
2019-04-12T08:24:55.559Z,11.02
2019-04-12T08:25:55.547Z,11.15
2019-04-12T08:26:55.531Z,11.27
2019-04-12T08:27:58.596Z,11.51
2019-04-12T08:28:55.506Z,11.55
2019-04-12T08:29:55.493Z,11.76
2019-04-12T08:30:55.480Z,11.76
2019-04-12T08:31:55.467Z,11.91
2019-04-12T08:32:55.452Z,12.03
2019-04-12T08:33:55.439Z,12.20
2019-04-12T08:34:55.427Z,12.18
2019-04-12T08:35:56.849Z,12.32
2019-04-12T08:36:55.400Z,12.48
2019-04-12T08:38:04.232Z,12.57
2019-04-12T08:38:55.373Z,12.70
2019-04-12T08:39:55.362Z,12.75
2019-04-12T08:40:55.347Z,12.93
2019-04-12T08:41:55.337Z,13.06
2019-04-12T08:42:55.323Z,13.12
2019-04-12T08:43:55.311Z,13.30
2019-04-12T08:44:55.297Z,13.46
2019-04-12T08:45:55.285Z,13.65
2019-04-12T08:46:55.292Z,13.61
2019-04-12T08:47:55.268Z,13.73
2019-04-12T08:48:55.248Z,13.68
2019-04-12T08:49:55.235Z,13.80
2019-04-12T08:50:55.263Z,13.97
2019-04-12T08:51:55.213Z,14.12
2019-04-12T08:52:55.201Z,14.23
2019-04-12T08:53:55.190Z,14.19
2019-04-12T08:54:55.176Z,14.34
2019-04-12T08:55:55.178Z,14.38
2019-04-12T08:56:55.166Z,14.40
2019-04-12T08:57:55.192Z,14.33
2019-04-12T08:58:55.172Z,14.33
2019-04-12T08:59:55.154Z,14.05
2019-04-12T09:00:55.170Z,14.01
2019-04-12T09:01:55.121Z,13.87
2019-04-12T09:02:59.179Z,13.78
2019-04-12T09:03:55.072Z,13.65
2019-04-12T09:04:55.067Z,13.54
2019-04-12T09:05:55.040Z,13.57
2019-04-12T09:06:55.030Z,13.67
2019-04-12T09:07:55.183Z,13.70
2019-04-12T09:08:55.072Z,13.80
2019-04-12T09:09:55.090Z,13.80
2019-04-12T09:10:55.040Z,13.83
2019-04-12T09:11:54.970Z,13.85
2019-04-12T09:12:55.004Z,13.93
2019-04-12T09:13:55.012Z,14.07
2019-04-12T09:14:54.927Z,14.22
2019-04-12T09:15:54.917Z,14.36
2019-04-12T09:16:54.951Z,14.51
2019-04-12T09:17:54.895Z,14.45
2019-04-12T09:18:54.959Z,14.45
2019-04-12T09:19:54.940Z,14.53
2019-04-12T09:20:54.861Z,14.49
2019-04-12T09:21:54.840Z,14.62
2019-04-12T09:22:54.904Z,14.81
2019-04-12T09:23:54.880Z,14.96
2019-04-12T09:24:54.871Z,14.97
2019-04-12T09:25:54.796Z,15.04
2019-04-12T09:26:54.847Z,15.18
2019-04-12T09:27:54.922Z,15.33
2019-04-12T09:28:54.821Z,15.39
2019-04-12T09:29:54.893Z,15.52
2019-04-12T09:30:54.797Z,15.57
2019-04-12T09:31:54.720Z,15.54
2019-04-12T09:32:54.863Z,15.73
2019-04-12T09:33:54.839Z,15.88
2019-04-12T09:34:54.689Z,16.26
2019-04-12T09:35:54.675Z,16.41
2019-04-12T09:36:54.674Z,16.66
2019-04-12T09:37:54.653Z,16.99
2019-04-12T09:38:54.641Z,17.19
2019-04-12T09:39:54.628Z,17.57
2019-04-12T09:40:56.345Z,17.73
2019-04-12T09:41:54.609Z,17.79
2019-04-12T09:42:54.599Z,17.93
2019-04-12T09:43:54.591Z,18.08
2019-04-12T09:44:54.578Z,18.31
2019-04-12T09:45:54.574Z,18.46
2019-04-12T09:46:54.560Z,18.49
2019-04-12T09:47:54.546Z,18.55
2019-04-12T09:48:54.540Z,18.68
2019-04-12T09:49:54.531Z,18.76
2019-04-12T09:50:54.539Z,18.83
2019-04-12T09:51:54.515Z,18.86
2019-04-12T09:52:54.503Z,18.97
2019-04-12T09:53:54.496Z,18.97
2019-04-12T09:54:54.489Z,19.15
2019-04-12T09:55:54.480Z,19.30
2019-04-12T09:56:54.469Z,19.52
2019-04-12T09:57:54.465Z,19.59
2019-04-12T09:58:57.199Z,19.60
2019-04-12T09:59:54.442Z,19.70
2019-04-12T10:00:54.433Z,19.56
2019-04-12T10:01:54.424Z,19.60
2019-04-12T10:02:54.432Z,19.39
2019-04-12T10:03:54.408Z,19.39
2019-04-12T10:04:54.685Z,19.29
2019-04-12T10:05:54.390Z,19.15
2019-04-12T10:06:57.132Z,19.17
2019-04-12T10:07:54.374Z,19.12
2019-04-12T10:08:54.367Z,19.26
2019-04-12T10:09:54.359Z,19.19
2019-04-12T10:10:54.347Z,19.00
2019-04-12T10:11:54.342Z,18.98
2019-04-12T10:12:54.332Z,19.00
2019-04-12T10:13:54.328Z,19.20
2019-04-12T10:14:54.312Z,19.30
2019-04-12T10:15:54.306Z,19.44
2019-04-12T10:16:54.297Z,19.53
2019-04-12T10:17:54.288Z,19.56
2019-04-12T10:18:54.287Z,19.53
2019-04-12T10:19:54.274Z,19.59
2019-04-12T10:20:54.266Z,19.64
2019-04-12T10:21:54.259Z,19.56
2019-04-12T10:22:54.252Z,19.39
2019-04-12T10:23:54.241Z,19.34
2019-04-12T10:24:54.230Z,19.34
2019-04-12T10:25:54.222Z,19.34
2019-04-12T10:26:54.218Z,19.52
2019-04-12T10:27:54.206Z,19.74
2019-04-12T10:28:54.200Z,19.89
2019-04-12T10:29:54.191Z,20.04
2019-04-12T10:30:54.181Z,20.15
2019-04-12T10:31:54.190Z,20.11
2019-04-12T10:32:54.167Z,20.19
2019-04-12T10:33:54.156Z,20.18
2019-04-12T10:34:55.983Z,20.12
2019-04-12T10:35:54.144Z,19.99
2019-04-12T10:36:54.133Z,19.92
2019-04-12T10:37:56.275Z,19.96
2019-04-12T10:38:54.124Z,20.00
2019-04-12T10:39:54.110Z,20.00
2019-04-12T10:40:54.109Z,19.79
2019-04-12T10:41:54.098Z,19.60
2019-04-12T10:42:54.092Z,19.52
2019-04-12T10:43:54.082Z,19.42
2019-04-12T10:44:54.076Z,19.38
2019-04-12T10:45:54.069Z,19.26
2019-04-12T10:46:54.056Z,19.16
2019-04-12T10:47:54.050Z,19.11
2019-04-12T10:48:54.062Z,19.04
2019-04-12T10:49:54.033Z,18.98
2019-04-12T10:50:54.027Z,19.04
2019-04-12T10:51:54.017Z,19.35
2019-04-12T10:52:54.012Z,19.48
2019-04-12T10:53:54.058Z,19.67
2019-04-12T10:54:53.994Z,19.82
2019-04-12T10:55:53.986Z,19.82
2019-04-12T10:56:53.980Z,19.59
2019-04-12T10:57:53.969Z,19.38
2019-04-12T10:59:02.732Z,19.23
2019-04-12T10:59:53.950Z,19.15
2019-04-12T11:00:53.944Z,19.11
2019-04-12T11:01:53.937Z,19.16
2019-04-12T11:02:53.928Z,18.98
2019-04-12T11:03:53.921Z,18.96
2019-04-12T11:04:53.908Z,18.86
2019-04-12T11:05:53.906Z,18.73
2019-04-12T11:06:53.892Z,18.85
2019-04-12T11:07:53.890Z,18.85
2019-04-12T11:08:53.877Z,18.71
2019-04-12T11:09:53.874Z,18.60
2019-04-12T11:10:53.868Z,18.46
2019-04-12T11:11:53.854Z,18.31
2019-04-12T11:12:53.842Z,18.24
2019-04-12T11:13:53.827Z,18.27
2019-04-12T11:14:55.132Z,18.34
2019-04-12T11:15:53.819Z,18.34
2019-04-12T11:16:53.808Z,18.34
2019-04-12T11:17:53.796Z,18.26
2019-04-12T11:18:53.793Z,17.97
2019-04-12T11:19:53.781Z,17.82
2019-04-12T11:20:53.771Z,17.60
2019-04-12T11:21:53.765Z,17.60
2019-04-12T11:22:53.752Z,17.35
2019-04-12T11:23:53.743Z,17.20
2019-04-12T11:24:53.731Z,17.01
2019-04-12T11:25:53.721Z,16.94
2019-04-12T11:26:53.710Z,16.66
2019-04-12T11:27:53.703Z,16.49
2019-04-12T11:28:53.690Z,16.34
2019-04-12T11:29:53.680Z,16.21
2019-04-12T11:30:53.670Z,16.12
2019-04-12T11:31:53.660Z,15.99
2019-04-12T11:32:53.648Z,15.84
2019-04-12T11:33:53.636Z,15.72
2019-04-12T11:34:53.624Z,15.45
2019-04-12T11:35:53.616Z,15.32
2019-04-12T11:36:53.602Z,15.27
2019-04-12T11:37:53.588Z,15.19
2019-04-12T11:38:53.587Z,15.10
2019-04-12T11:39:53.584Z,15.04
2019-04-12T11:40:53.563Z,14.87
2019-04-12T11:41:53.546Z,14.78
2019-04-12T11:42:53.530Z,14.74
2019-04-12T11:43:53.519Z,14.70
2019-04-12T11:44:53.509Z,14.61
2019-04-12T11:45:53.500Z,14.77
2019-04-12T11:46:53.482Z,14.81
2019-04-12T11:47:53.473Z,14.90
2019-04-12T11:48:53.461Z,15.05
2019-04-12T11:49:53.449Z,15.14
2019-04-12T11:50:53.434Z,15.10
2019-04-12T11:51:53.424Z,14.97
2019-04-12T11:52:53.410Z,15.08
2019-04-12T11:53:53.415Z,15.05
2019-04-12T11:54:53.384Z,15.07
2019-04-12T11:55:53.373Z,15.10
2019-04-12T11:56:53.361Z,15.10
2019-04-12T11:57:53.352Z,15.15
2019-04-12T11:58:53.336Z,15.15
2019-04-12T11:59:53.330Z,15.26
2019-04-12T12:00:53.317Z,15.32
2019-04-12T12:01:53.300Z,15.35
2019-04-12T12:02:53.288Z,15.32
2019-04-12T12:03:53.277Z,15.29
2019-04-12T12:04:53.264Z,15.29
2019-04-12T12:05:53.254Z,15.15
2019-04-12T12:06:53.240Z,15.27
2019-04-12T12:07:53.230Z,15.30
2019-04-12T12:08:53.216Z,15.29
2019-04-12T12:09:53.203Z,15.25
2019-04-12T12:10:53.189Z,15.36
2019-04-12T12:11:53.197Z,15.44
2019-04-12T12:12:53.168Z,15.50
2019-04-12T12:13:53.159Z,15.45
2019-04-12T12:14:53.148Z,15.62
2019-04-12T12:15:53.133Z,15.57
2019-04-12T12:16:53.123Z,15.67
2019-04-12T12:17:53.111Z,15.62
2019-04-12T12:18:53.099Z,15.73
2019-04-12T12:19:53.088Z,15.75
2019-04-12T12:20:53.077Z,15.98
2019-04-12T12:21:53.062Z,16.22
2019-04-12T12:22:53.051Z,16.43
2019-04-12T12:23:53.040Z,16.58
2019-04-12T12:24:53.030Z,16.66
2019-04-12T12:25:53.018Z,16.61
2019-04-12T12:26:53.012Z,16.65
2019-04-12T12:27:52.997Z,16.61
2019-04-12T12:28:52.988Z,16.66
2019-04-12T12:29:52.978Z,16.58
2019-04-12T12:30:52.969Z,16.58
2019-04-12T12:31:52.956Z,16.51
2019-04-12T12:32:52.946Z,16.25
2019-04-12T12:33:52.934Z,16.21
2019-04-12T12:34:52.924Z,16.16
2019-04-12T12:35:52.915Z,16.25
2019-04-12T12:36:52.903Z,16.13
2019-04-12T12:37:52.890Z,16.24
2019-04-12T12:38:52.884Z,16.36
2019-04-12T12:39:53.131Z,16.54
2019-04-12T12:40:52.862Z,16.58
2019-04-12T12:41:52.851Z,16.69
2019-04-12T12:42:52.844Z,16.69
2019-04-12T12:43:52.834Z,16.76
2019-04-12T12:44:52.816Z,16.79
2019-04-12T12:45:52.811Z,16.87
2019-04-12T12:46:52.802Z,16.89
2019-04-12T12:47:52.790Z,16.84
2019-04-12T12:48:52.782Z,16.73
2019-04-12T12:49:52.772Z,16.54
2019-04-12T12:50:52.767Z,16.49
2019-04-12T12:51:52.752Z,16.31
2019-04-12T12:52:52.741Z,16.22
2019-04-12T12:53:52.732Z,16.18
2019-04-12T12:54:52.724Z,16.24
2019-04-12T12:55:52.711Z,16.31
2019-04-12T12:56:52.703Z,16.58
2019-04-12T12:57:52.698Z,16.79
2019-04-12T12:58:52.685Z,17.10
2019-04-12T12:59:55.038Z,17.42
2019-04-12T13:00:52.667Z,17.84
2019-04-12T13:01:52.661Z,18.26
2019-04-12T13:02:52.655Z,18.61